Time;durP1;ratioP1;P1;durP2;ratioP2;P2;SDS_P1;SDS_P2;PMS_P1;PMS_P2;Temp;Humidity;BMP_temperature;BMP_pressure;BME280_temperature;BME280_humidity;BME280_pressure;Samples;Min_cycle;Max_cycle;Signal;HPM_P1;HPM_P2
2022/11/14 00:02:11;;;;;;;10.30;3.38;;;;;;;14.96;65.53;98654.78;5092201;28;20016;-48
2022/11/14 00:04:37;;;;;;;7.68;2.90;;;;;;;14.95;65.16;98624.13;5093512;28;20059;-48
2022/11/14 00:07:02;;;;;;;7.68;3.55;;;;;;;14.95;65.27;98634.69;5075392;28;20023;-48
2022/11/14 00:09:28;;;;;;;8.63;3.22;;;;;;;14.92;65.24;98658.94;5093315;28;20394;-48
2022/11/14 00:11:54;;;;;;;7.05;2.78;;;;;;;15.00;64.95;98647.22;5092044;28;20032;-48
2022/11/14 00:14:20;;;;;;;5.63;2.10;;;;;;;15.08;64.13;98635.50;5093324;28;20138;-48
2022/11/14 00:16:47;;;;;;;9.20;3.72;;;;;;;15.02;64.34;98660.22;5091923;28;20142;-48
2022/11/14 00:19:13;;;;;;;9.10;3.33;;;;;;;15.04;64.38;98637.00;5093192;28;20020;-48
2022/11/14 00:21:39;;;;;;;8.95;3.42;;;;;;;15.03;63.97;98669.72;5093125;28;20028;-48
2022/11/14 00:24:04;;;;;;;12.10;4.00;;;;;;;14.96;64.80;98632.84;5091543;28;20071;-48
2022/11/14 00:26:30;;;;;;;7.97;3.70;;;;;;;14.96;64.07;98661.94;5074941;28;20490;-48
2022/11/14 00:28:56;;;;;;;5.38;3.15;;;;;;;14.96;63.60;98638.13;5093023;28;20486;-48
2022/11/14 00:31:22;;;;;;;4.50;2.83;;;;;;;15.00;63.03;98633.22;5092814;28;20032;-48
2022/11/14 00:33:47;;;;;;;6.40;2.90;;;;;;;15.03;62.77;98632.72;5092930;28;20016;-48
2022/11/14 00:36:13;;;;;;;8.38;3.70;;;;;;;15.05;62.68;98628.03;5091507;28;20032;-48
2022/11/14 00:38:39;;;;;;;8.88;3.10;;;;;;;15.10;62.19;98652.72;5074696;28;20139;-48
2022/11/14 00:41:05;;;;;;;7.63;2.65;;;;;;;15.11;61.88;98657.00;5092817;28;20512;-48
2022/11/14 00:43:30;;;;;;;7.93;3.25;;;;;;;15.09;61.64;98658.25;5091385;28;20020;-48
2022/11/14 00:45:56;;;;;;;6.43;2.67;;;;;;;15.10;61.36;98639.50;5092652;28;20032;-48
2022/11/14 00:48:22;;;;;;;7.55;3.47;;;;;;;15.03;61.61;98632.72;5092648;28;20106;-48
2022/11/14 00:50:47;;;;;;;7.40;3.45;;;;;;;15.04;61.34;98629.06;5091234;28;20544;-48
2022/11/14 00:53:13;;;;;;;9.52;3.13;;;;;;;15.03;61.27;98669.72;5092808;28;20493;-48
2022/11/14 00:55:39;;;;;;;12.60;3.47;;;;;;;14.90;62.14;98605.50;5091236;28;20603;-48
2022/11/14 00:58:05;;;;;;;6.53;3.13;;;;;;;14.92;62.06;98627.22;5092494;28;20020;-48
2022/11/14 01:00:31;;;;;;;3.70;2.28;;;;;;;14.95;61.96;98637.34;5090227;28;20114;-48
2022/11/14 01:02:57;;;;;;;6.35;3.03;;;;;;;14.88;62.25;98607.56;5091384;28;20032;-48
2022/11/14 01:05:26;;;;;;;8.88;2.95;;;;;;;14.86;62.24;98616.78;5092573;28;20036;-48
2022/11/14 01:07:52;;;;;;;8.07;3.42;;;;;;;14.87;61.96;98628.94;5092304;28;20051;-48
2022/11/14 01:10:18;;;;;;;5.85;2.75;;;;;;;14.95;61.27;98623.31;5092186;28;20028;-48
2022/11/14 01:12:44;;;;;;;7.72;3.42;;;;;;;14.88;61.99;98620.00;5091293;28;20455;-48
2022/11/14 01:15:10;;;;;;;4.15;2.75;;;;;;;14.84;61.79;98621.47;5092187;28;20023;-48
2022/11/14 01:17:36;;;;;;;7.10;3.05;;;;;;;14.86;61.98;98617.56;5092236;28;20027;-48
2022/11/14 01:20:02;;;;;;;7.53;2.90;;;;;;;14.84;61.95;98630.22;5092179;28;20119;-48
2022/11/14 01:22:29;;;;;;;5.80;2.78;;;;;;;14.82;62.27;98599.78;5092146;28;20453;-48
2022/11/14 01:24:57;;;;;;;11.23;3.70;;;;;;;14.77;62.10;98608.41;5091774;28;20056;-48
2022/11/14 01:27:24;;;;;;;9.32;3.28;;;;;;;14.81;63.48;98598.97;5092089;28;20020;-48
2022/11/14 01:29:50;;;;;;;5.70;2.97;;;;;;;14.90;62.90;98629.28;5092017;28;20020;-48
2022/11/14 01:32:15;;;;;;;9.57;3.50;;;;;;;14.90;61.94;98612.63;5090641;28;20107;-48
2022/11/14 01:34:41;;;;;;;6.30;3.50;;;;;;;14.81;62.29;98628.03;5090670;28;20017;-48
2022/11/14 01:37:06;;;;;;;6.43;3.13;;;;;;;14.78;62.13;98602.84;5090571;28;20024;-48
2022/11/14 01:39:32;;;;;;;7.00;3.17;;;;;;;14.76;62.16;98604.94;5090623;28;20564;-48
2022/11/14 01:41:58;;;;;;;7.40;2.60;;;;;;;14.75;62.45;98619.19;5090589;28;20028;-48
2022/11/14 01:44:45;;;;;;;8.90;3.28;;;;;;;14.68;63.05;98601.84;5091867;28;20019;-48
2022/11/14 01:47:16;;;;;;;8.13;2.58;;;;;;;14.71;63.02;98611.97;5090680;28;20074;-48
2022/11/14 01:49:46;;;;;;;7.43;2.78;;;;;;;14.71;63.21;98590.81;5090475;28;20081;-48
2022/11/14 01:52:16;;;;;;;8.48;3.45;;;;;;;14.64;63.34;98598.03;5090731;28;20115;-48
2022/11/14 01:54:47;;;;;;;6.55;2.85;;;;;;;14.68;62.19;98600.00;5091831;28;20106;-48
2022/11/14 01:57:17;;;;;;;4.28;2.47;;;;;;;14.68;61.76;98575.41;5090456;28;20067;-49
2022/11/14 01:59:48;;;;;;;7.40;3.08;;;;;;;14.60;61.74;98602.16;5090436;28;20078;-48
2022/11/14 02:02:23;;;;;;;4.88;3.05;;;;;;;14.60;61.50;98591.59;5091764;28;20127;-48
2022/11/14 02:05:16;;;;;;;5.97;3.53;;;;;;;14.56;61.44;98549.78;5091729;28;20020;-48
2022/11/14 02:07:42;;;;;;;46.00;18.52;;;;;;;14.61;61.30;98583.47;5091743;28;20028;-48
2022/11/14 02:10:15;;;;;;;11.13;5.65;;;;;;;14.63;61.15;98570.00;5091562;28;20046;-48
2022/11/14 02:12:41;;;;;;;4.82;2.78;;;;;;;14.72;60.44;98576.56;5095465;28;20032;-48
2022/11/14 02:15:09;;;;;;;9.10;3.53;;;;;;;14.63;60.64;98559.44;5094260;28;20028;-48
2022/11/14 02:17:34;;;;;;;9.30;3.20;;;;;;;14.57;60.82;98582.31;5094277;28;20052;-48
2022/11/14 02:20:14;;;;;;;8.43;3.47;;;;;;;14.55;60.96;98569.28;5094166;28;20028;-48
2022/11/14 02:22:41;;;;;;;7.43;3.13;;;;;;;14.56;60.86;98591.25;5094225;28;20063;-48
2022/11/14 02:25:08;;;;;;;8.40;3.25;;;;;;;14.57;60.81;98542.69;5093882;28;20055;-48
2022/11/14 02:27:36;;;;;;;8.45;2.83;;;;;;;14.66;59.88;98559.78;5094096;28;20048;-48
2022/11/14 02:30:08;;;;;;;10.20;3.65;;;;;;;14.63;59.76;98512.72;5095238;28;20020;-48
2022/11/14 02:32:34;;;;;;;6.10;2.78;;;;;;;14.69;59.43;98593.69;5093968;28;20501;-48
2022/11/14 02:34:59;;;;;;;6.97;2.88;;;;;;;14.61;59.78;98557.06;5095284;28;20026;-48
2022/11/14 02:37:25;;;;;;;9.45;3.05;;;;;;;14.61;59.54;98580.00;5093870;28;20393;-48
2022/11/14 02:39:51;;;;;;;6.47;3.00;;;;;;;14.57;60.10;98548.78;5093843;28;20133;-48
2022/11/14 02:42:16;;;;;;;7.43;3.00;;;;;;;14.55;59.68;98550.81;5095120;28;20020;-48
2022/11/14 02:44:42;;;;;;;6.43;2.85;;;;;;;14.53;59.12;98566.09;5095096;28;20490;-48
2022/11/14 02:47:07;;;;;;;3.75;2.38;;;;;;;14.54;58.72;98543.13;5095004;28;20024;-48
2022/11/14 02:49:33;;;;;;;5.18;3.30;;;;;;;14.48;58.86;98573.88;5093599;28;20028;-48
2022/11/14 02:51:58;;;;;;;3.78;2.53;;;;;;;14.43;58.98;98554.47;5093691;28;20482;-48
2022/11/14 02:54:24;;;;;;;7.43;3.28;;;;;;;14.43;58.48;98549.19;5093559;28;20028;-48
2022/11/14 02:56:50;;;;;;;6.00;2.38;;;;;;;14.42;58.12;98551.03;5093529;28;20053;-48
2022/11/14 02:59:16;;;;;;;10.77;3.58;;;;;;;14.45;57.53;98470.56;5094744;28;20486;-48
2022/11/14 03:01:41;;;;;;;7.65;3.15;;;;;;;14.37;58.14;98521.88;5094729;28;20024;-48
2022/11/14 03:04:07;;;;;;;4.57;2.28;;;;;;;14.33;58.26;98547.13;5094626;28;20027;-48
2022/11/14 03:06:33;;;;;;;12.98;3.53;;;;;;;14.36;58.29;98549.28;5093495;28;20028;-48
2022/11/14 03:08:58;;;;;;;4.32;2.60;;;;;;;14.35;58.24;98563.53;5094624;28;20123;-48
2022/11/14 03:11:27;;;;;;;11.73;3.28;;;;;;;14.32;58.64;98563.97;5076346;28;20515;-48
2022/11/14 03:13:53;;;;;;;5.72;2.60;;;;;;;14.35;58.44;98571.47;5094588;28;20107;-48
2022/11/14 03:16:18;;;;;;;6.95;3.67;;;;;;;14.27;58.37;98529.56;5093157;28;20110;-48
2022/11/14 03:18:44;;;;;;;3.75;2.30;;;;;;;14.30;58.46;98550.22;5093107;28;20032;-48
2022/11/14 03:21:19;;;;;;;9.27;3.25;;;;;;;14.29;58.76;98575.00;5093066;28;20084;-48
2022/11/14 03:23:45;;;;;;;4.68;2.72;;;;;;;14.30;58.42;98576.59;5093163;28;20541;-49
2022/11/14 03:26:12;;;;;;;5.28;2.85;;;;;;;14.31;58.07;98572.94;5092939;28;20032;-48
2022/11/14 03:28:39;;;;;;;6.07;2.78;;;;;;;14.28;58.34;98531.16;5094301;28;20032;-48
2022/11/14 03:31:05;;;;;;;4.93;2.67;;;;;;;14.27;58.26;98548.03;5094173;28;20140;-48
2022/11/14 03:33:32;;;;;;;3.67;2.33;;;;;;;14.22;58.47;98513.59;5092942;28;20379;-48
2022/11/14 03:35:58;;;;;;;6.25;3.33;;;;;;;14.26;58.09;98541.94;5094105;28;20021;-48
2022/11/14 03:38:23;;;;;;;4.82;2.55;;;;;;;14.20;58.40;98542.84;5094069;28;20031;-48
2022/11/14 03:40:50;;;;;;;5.78;2.78;;;;;;;14.09;58.60;98544.44;5094012;28;20031;-48
2022/11/14 03:43:20;;;;;;;5.95;2.97;;;;;;;14.10;58.49;98535.47;5093938;28;20101;-48
2022/11/14 03:45:47;;;;;;;4.38;2.83;;;;;;;14.16;57.51;98545.13;5092666;28;20074;-48
2022/11/14 03:48:13;;;;;;;6.90;2.97;;;;;;;14.14;57.76;98541.91;5092477;28;20031;-48
2022/11/14 03:50:39;;;;;;;10.25;3.28;;;;;;;14.12;57.79;98528.13;5092403;28;20020;-48
2022/11/14 03:53:05;;;;;;;7.25;2.85;;;;;;;14.09;57.48;98573.47;5092471;28;20090;-48
2022/11/14 03:55:31;;;;;;;5.75;2.55;;;;;;;14.10;57.40;98569.00;5094239;28;20078;-48
2022/11/14 03:57:56;;;;;;;5.97;3.33;;;;;;;14.05;57.16;98540.66;5093716;28;20510;-48
2022/11/14 04:00:22;;;;;;;5.40;2.65;;;;;;;14.04;57.26;98544.31;5092280;28;20032;-48
2022/11/14 04:02:48;;;;;;;4.70;2.08;;;;;;;13.96;57.26;98491.88;5093607;28;20024;-47
2022/11/14 04:05:13;;;;;;;11.43;3.90;;;;;;;14.03;57.38;98510.25;5093503;28;20024;-48
2022/11/14 04:07:39;;;;;;;5.90;2.75;;;;;;;14.08;56.69;98534.09;5092153;28;20077;-48
2022/11/14 04:10:05;;;;;;;5.20;2.58;;;;;;;14.04;56.68;98535.59;5075152;28;20405;-48
2022/11/14 04:12:31;;;;;;;4.93;3.13;;;;;;;14.04;56.91;98541.66;5092072;28;20036;-48
2022/11/14 04:14:57;;;;;;;5.40;2.30;;;;;;;14.03;56.64;98566.47;5092059;28;20031;-48
2022/11/14 04:17:22;;;;;;;6.07;2.90;;;;;;;14.04;56.48;98478.34;5093297;28;20550;-47
2022/11/14 04:19:49;;;;;;;4.85;2.28;;;;;;;14.04;56.37;98538.22;5091954;28;20069;-48
2022/11/14 04:22:15;;;;;;;8.38;2.53;;;;;;;14.06;56.00;98544.09;5091849;28;20035;-48
2022/11/14 04:24:41;;;;;;;4.07;2.20;;;;;;;14.01;56.04;98523.66;5092935;28;20040;-48
2022/11/14 04:27:06;;;;;;;4.15;2.90;;;;;;;14.00;56.34;98543.16;5093063;28;20058;-48
2022/11/14 04:29:32;;;;;;;4.68;2.38;;;;;;;14.10;55.99;98532.84;5091701;28;20024;-48
2022/11/14 04:31:57;;;;;;;8.38;2.53;;;;;;;14.08;55.72;98558.66;5091565;28;20036;-48
2022/11/14 04:34:23;;;;;;;6.10;2.55;;;;;;;14.00;56.05;98564.25;5092811;28;20055;-48
2022/11/14 04:36:52;;;;;;;4.65;2.20;;;;;;;14.01;55.75;98563.25;5092920;28;20111;-48
2022/11/14 04:39:18;;;;;;;8.00;2.67;;;;;;;13.94;56.47;98562.53;5093044;28;20024;-48
2022/11/14 04:41:43;;;;;;;4.18;2.47;;;;;;;13.98;55.62;98548.66;5091447;28;20536;-48
2022/11/14 04:44:09;;;;;;;4.78;2.53;;;;;;;13.96;55.48;98528.81;5091440;28;20024;-48
2022/11/14 04:46:35;;;;;;;6.93;2.67;;;;;;;13.93;55.32;98529.25;5092706;28;20028;-48
2022/11/14 04:49:01;;;;;;;5.25;2.78;;;;;;;13.98;55.18;98545.22;5074488;28;20031;-48
2022/11/14 04:51:26;;;;;;;3.55;2.03;;;;;;;14.07;54.67;98543.06;5092522;28;20020;-48
2022/11/14 04:53:52;;;;;;;5.00;2.50;;;;;;;14.12;54.52;98540.53;5091340;28;20030;-48
2022/11/14 04:56:18;;;;;;;5.43;2.67;;;;;;;14.15;54.62;98561.22;5091530;28;20032;-48
2022/11/14 04:58:43;;;;;;;4.25;2.17;;;;;;;14.21;53.94;98549.75;5092485;28;20110;-48
2022/11/14 05:01:10;;;;;;;4.53;2.58;;;;;;;14.23;53.87;98531.84;5091142;28;20070;-48
2022/11/14 05:03:35;;;;;;;3.72;2.03;;;;;;;14.27;53.47;98550.69;5092435;28;20028;-48
2022/11/14 05:06:02;;;;;;;3.85;2.00;;;;;;;14.33;52.63;98531.28;5091065;28;20023;-48
2022/11/14 05:08:28;;;;;;;3.88;2.25;;;;;;;14.28;52.73;98528.50;5091086;28;20497;-48
2022/11/14 05:10:53;;;;;;;6.97;2.33;;;;;;;14.31;52.73;98549.19;5092486;28;20431;-48
2022/11/14 05:13:19;;;;;;;9.38;2.70;;;;;;;14.28;52.73;98558.34;5092260;28;20084;-48
2022/11/14 05:15:46;;;;;;;6.10;2.35;;;;;;;14.24;52.91;98548.47;5092276;28;20053;-48
2022/11/14 05:18:12;;;;;;;4.40;2.70;;;;;;;14.28;52.91;98510.84;5090924;28;20032;-48
2022/11/14 05:20:37;;;;;;;13.38;2.25;;;;;;;14.34;52.54;98561.91;5092126;28;20024;-48
2022/11/14 05:23:03;;;;;;;4.55;2.42;;;;;;;14.28;52.66;98558.34;5091901;28;20039;-49
2022/11/14 05:25:29;;;;;;;9.45;3.20;;;;;;;14.25;53.13;98535.06;5092122;28;20039;-47
2022/11/14 05:27:54;;;;;;;6.85;1.92;;;;;;;14.25;52.76;98539.53;5092062;28;20402;-48
2022/11/14 05:30:20;;;;;;;2.75;1.70;;;;;;;14.26;52.43;98536.66;5090684;28;20024;-48
2022/11/14 05:32:46;;;;;;;4.63;2.58;;;;;;;14.21;52.81;98554.22;5090714;28;20035;-48
2022/11/14 05:35:12;;;;;;;8.70;2.63;;;;;;;14.23;52.53;98594.41;5090636;28;20035;-48
2022/11/14 05:37:38;;;;;;;10.23;2.05;;;;;;;14.28;52.24;98562.84;5090651;28;20034;-48
2022/11/14 05:40:05;;;;;;;3.08;1.95;;;;;;;14.29;52.56;98535.41;5091912;28;20035;-48
2022/11/14 05:42:30;;;;;;;5.38;2.60;;;;;;;14.36;52.17;98530.81;5090602;28;20059;-48
2022/11/14 05:44:56;;;;;;;7.10;2.53;;;;;;;14.44;51.88;98538.41;5090452;28;20055;-48
2022/11/14 05:47:22;;;;;;;4.25;2.20;;;;;;;14.42;51.91;98548.38;5091371;28;20020;-48
2022/11/14 05:49:47;;;;;;;6.32;2.90;;;;;;;14.47;51.17;98545.88;5091757;28;20020;-48
2022/11/14 05:52:13;;;;;;;8.95;2.75;;;;;;;14.46;51.33;98538.97;5090527;28;20081;-48
2022/11/14 05:54:38;;;;;;;4.40;2.40;;;;;;;14.47;50.73;98537.94;5090737;28;20490;-48
2022/11/14 05:57:05;;;;;;;6.18;2.88;;;;;;;14.49;51.05;98533.25;5091807;28;20016;-48
2022/11/14 05:59:30;;;;;;;3.58;2.30;;;;;;;14.48;50.70;98538.75;5091787;28;20028;-48
2022/11/14 06:01:56;;;;;;;5.65;2.17;;;;;;;14.58;50.22;98520.53;5090376;28;20563;-48
2022/11/14 06:04:22;;;;;;;5.65;2.30;;;;;;;14.60;50.40;98573.13;5091761;28;20553;-48
2022/11/14 06:06:47;;;;;;;5.40;2.20;;;;;;;14.57;50.32;98566.47;5091948;28;20020;-48
2022/11/14 06:09:13;;;;;;;6.63;2.70;;;;;;;14.45;50.97;98542.66;5090406;28;20038;-48
2022/11/14 06:11:40;;;;;;;4.00;2.20;;;;;;;14.43;50.71;98550.00;5091558;28;20034;-49
2022/11/14 06:14:05;;;;;;;6.88;2.63;;;;;;;14.41;50.80;98569.72;5090302;28;20035;-48
2022/11/14 06:16:31;;;;;;;7.07;3.13;;;;;;;14.33;51.33;98565.59;5091547;28;20016;-48
2022/11/14 06:18:57;;;;;;;6.13;2.58;;;;;;;14.20;51.71;98529.66;5090238;28;20040;-48
2022/11/14 06:21:25;;;;;;;3.85;2.13;;;;;;;14.15;52.37;98548.81;5091514;28;20024;-48
2022/11/14 06:23:51;;;;;;;4.18;2.00;;;;;;;14.16;51.93;98563.59;5091169;28;20040;-49
2022/11/14 06:26:26;;;;;;;8.85;2.95;;;;;;;14.05;52.78;98580.22;5090182;28;20023;-48
2022/11/14 06:28:52;;;;;;;5.28;2.35;;;;;;;14.07;52.58;98549.16;5090277;28;20035;-48
2022/11/14 06:31:19;;;;;;;5.43;2.10;;;;;;;14.01;52.50;98575.63;5091338;28;20039;-49
2022/11/14 06:33:45;;;;;;;5.47;2.33;;;;;;;13.94;52.61;98521.13;5091450;28;20028;-48
2022/11/14 06:36:15;;;;;;;3.00;2.13;;;;;;;14.01;52.31;98559.81;5090075;28;20060;-48
2022/11/14 06:38:42;;;;;;;4.88;2.10;;;;;;;14.05;52.06;98584.72;5091399;28;20107;-48
2022/11/14 06:41:13;;;;;;;6.40;2.55;;;;;;;13.99;52.08;98584.56;5091353;28;20059;-48
2022/11/14 06:43:47;;;;;;;4.40;2.40;;;;;;;14.02;51.88;98570.13;5090085;28;20024;-49
2022/11/14 06:46:17;;;;;;;5.07;3.00;;;;;;;14.06;51.90;98591.59;5090053;28;20028;-48
2022/11/14 06:48:44;;;;;;;5.85;2.20;;;;;;;14.08;51.82;98605.34;5091273;28;20493;-48
2022/11/14 06:51:11;;;;;;;4.95;2.42;;;;;;;14.01;51.62;98602.03;5089837;28;20021;-48
2022/11/14 06:53:38;;;;;;;5.20;2.70;;;;;;;13.99;52.15;98624.16;5089978;28;20028;-48
2022/11/14 06:56:12;;;;;;;6.00;2.50;;;;;;;13.94;52.56;98604.72;5089941;28;20054;-48
2022/11/14 06:58:41;;;;;;;5.22;2.80;;;;;;;13.92;52.76;98596.25;5093106;28;20028;-47
2022/11/14 07:01:27;;;;;;;5.75;3.13;;;;;;;14.00;52.68;98606.47;5093446;28;20398;-48
2022/11/14 07:03:52;;;;;;;;;;;;;;;14.01;53.02;98615.22;5094761;28;20090;-48
2022/11/14 07:06:22;;;;;;;;;;;;;;;14.09;52.77;98599.88;5093820;28;20381;-48
2022/11/14 07:08:49;;;;;;;5.40;2.97;;;;;;;14.08;53.19;98600.06;5094608;28;19916;-48
2022/11/14 07:11:25;;;;;;;2.90;2.20;;;;;;;14.07;53.21;98601.13;5093180;28;20035;-48
2022/11/14 07:13:57;;;;;;;6.10;2.85;;;;;;;14.10;53.48;98608.56;5094507;28;20024;-48
2022/11/14 07:16:35;;;;;;;5.00;3.05;;;;;;;14.10;53.43;98619.94;5094713;28;20024;-48
2022/11/14 07:19:03;;;;;;;5.53;3.00;;;;;;;14.20;52.65;98629.94;5093185;28;20035;-48
2022/11/14 07:21:30;;;;;;;6.10;2.92;;;;;;;14.19;52.91;98615.94;5093096;28;20039;-48
2022/11/14 07:23:57;;;;;;;9.88;3.47;;;;;;;14.21;53.06;98615.72;5092808;28;20582;-48
2022/11/14 07:26:22;;;;;;;7.50;2.85;;;;;;;14.31;52.42;98600.16;5092966;28;20116;-48
2022/11/14 07:28:48;;;;;;;5.95;3.30;;;;;;;14.33;52.60;98655.38;5094257;28;20103;-48
2022/11/14 07:31:17;;;;;;;5.25;3.10;;;;;;;14.39;52.01;98617.50;5094152;28;20436;-48
2022/11/14 07:33:44;;;;;;;4.50;3.10;;;;;;;14.41;52.40;98607.53;5092864;28;20486;-48
2022/11/14 07:36:11;;;;;;;6.55;3.13;;;;;;;14.39;52.45;98638.63;5075952;28;20723;-48
2022/11/14 07:38:37;;;;;;;6.20;2.88;;;;;;;14.42;52.34;98629.44;5092830;28;20038;-48
2022/11/14 07:41:11;;;;;;;5.97;2.97;;;;;;;14.43;52.36;98639.78;5092747;28;20499;-48
2022/11/14 07:43:37;;;;;;;4.38;2.53;;;;;;;14.43;52.52;98634.50;5092727;28;20450;-48
2022/11/14 07:46:10;;;;;;;7.07;2.78;;;;;;;14.45;52.58;98621.88;5075857;28;20024;-48
2022/11/14 07:48:36;;;;;;;4.00;2.70;;;;;;;14.55;52.08;98637.97;5093883;28;20040;-48
2022/11/14 07:51:04;;;;;;;6.20;2.92;;;;;;;14.56;52.15;98639.59;5093727;28;20065;-48
2022/11/14 07:53:30;;;;;;;7.80;3.65;;;;;;;14.62;52.19;98640.53;5092471;28;20039;-48
2022/11/14 07:56:00;;;;;;;6.63;2.88;;;;;;;14.73;51.75;98636.31;5092400;28;20028;-48
2022/11/14 07:58:26;;;;;;;8.50;3.28;;;;;;;14.84;51.82;98661.13;5076108;28;20485;-48
2022/11/14 08:00:52;;;;;;;6.00;2.88;;;;;;;14.94;51.02;98669.28;5092255;28;20035;-48
2022/11/14 08:03:18;;;;;;;7.25;3.13;;;;;;;14.96;51.13;98660.09;5092278;28;20032;-48
2022/11/14 08:05:43;;;;;;;10.40;3.40;;;;;;;14.99;51.26;98679.97;5093454;28;20440;-48
2022/11/14 08:08:09;;;;;;;5.82;2.80;;;;;;;15.08;50.46;98648.72;5093307;28;20371;-48
2022/11/14 08:10:35;;;;;;;5.68;2.70;;;;;;;15.09;50.60;98671.44;5093137;28;20397;-48
2022/11/14 08:13:04;;;;;;;3.75;2.60;;;;;;;15.18;50.78;98672.72;5093460;28;20020;-48
2022/11/14 08:15:30;;;;;;;6.63;3.03;;;;;;;15.24;50.18;98666.53;5093327;28;20520;-48
2022/11/14 08:17:57;;;;;;;5.43;2.92;;;;;;;15.26;49.80;98668.94;5091985;28;20021;-48
2022/11/14 08:20:24;;;;;;;7.07;3.08;;;;;;;15.29;50.17;98684.31;5093559;28;20056;-48
2022/11/14 08:22:49;;;;;;;3.95;2.70;;;;;;;15.35;49.71;98684.22;5093484;28;20410;-48
2022/11/14 08:25:15;;;;;;;4.05;2.60;;;;;;;15.43;49.16;98676.97;5093042;28;20044;-48
2022/11/14 08:27:41;;;;;;;6.05;2.70;;;;;;;15.47;49.51;98678.09;5091850;28;20028;-48
2022/11/14 08:30:07;;;;;;;8.20;2.90;;;;;;;15.74;49.35;98678.44;5091711;28;20082;-48
2022/11/14 08:32:34;;;;;;;6.13;2.95;;;;;;;15.83;48.27;98670.94;5091762;28;20020;-48
2022/11/14 08:34:59;;;;;;;8.30;2.50;;;;;;;15.93;48.38;98665.84;5091655;28;20036;-48
2022/11/14 08:37:25;;;;;;;6.63;2.30;;;;;;;16.01;47.48;98660.16;5091629;28;20027;-48
2022/11/14 08:39:51;;;;;;;4.45;2.95;;;;;;;15.94;48.26;98678.84;5092898;28;20027;-48
2022/11/14 08:42:16;;;;;;;5.38;2.78;;;;;;;16.07;47.69;98680.41;5091540;28;20390;-48
2022/11/14 08:44:42;;;;;;;6.18;2.97;;;;;;;16.64;46.46;98674.28;5092821;28;20020;-48
2022/11/14 08:47:08;;;;;;;7.47;3.00;;;;;;;16.93;45.73;98703.38;5091429;28;20094;-48
2022/11/14 08:49:33;;;;;;;3.75;2.22;;;;;;;17.76;43.77;98674.28;5092772;28;20027;-46
2022/11/14 08:51:59;;;;;;;6.68;2.78;;;;;;;18.16;42.98;98679.25;5092483;28;20034;-46
2022/11/14 08:54:25;;;;;;;9.55;3.13;;;;;;;18.83;42.46;98677.22;5091310;28;20047;-46
2022/11/14 08:56:51;;;;;;;10.55;2.92;;;;;;;18.60;41.73;98674.91;5092574;28;20091;-46
2022/11/14 08:59:16;;;;;;;7.45;2.63;;;;;;;18.19;42.47;98685.13;5091236;28;20405;-46
2022/11/14 09:01:42;;;;;;;11.50;2.88;;;;;;;18.03;42.75;98687.63;5092491;28;20046;-46
2022/11/14 09:04:08;;;;;;;8.40;2.80;;;;;;;18.05;42.70;98690.84;5091159;28;20097;-46
2022/11/14 09:06:34;;;;;;;7.50;2.70;;;;;;;18.12;42.66;98688.78;5092443;28;20062;-46
2022/11/14 09:09:00;;;;;;;5.13;2.22;;;;;;;18.51;41.70;98663.91;5092286;28;20035;-46
2022/11/14 09:11:25;;;;;;;13.68;2.92;;;;;;;18.16;42.04;98633.31;5090978;28;20095;-46
2022/11/14 09:13:51;;;;;;;9.57;3.17;;;;;;;17.68;43.62;98693.28;5090989;28;20016;-46
2022/11/14 09:16:17;;;;;;;12.93;3.50;;;;;;;17.47;43.55;98682.41;5090923;28;20027;-46
2022/11/14 09:18:42;;;;;;;17.23;3.25;;;;;;;17.22;44.56;98685.50;5090925;28;20024;-46
2022/11/14 09:21:09;;;;;;;4.88;3.10;;;;;;;17.08;44.64;98689.53;5090182;28;20026;-46
2022/11/14 09:23:35;;;;;;;4.15;2.53;;;;;;;16.93;45.10;98696.22;5090560;28;20051;-46
2022/11/14 09:26:08;;;;;;;3.70;2.10;;;;;;;16.98;44.90;98690.19;5090860;28;20031;-46
2022/11/14 09:28:36;;;;;;;7.15;2.90;;;;;;;16.89;45.35;98697.75;5092043;28;20078;-46
2022/11/14 09:31:04;;;;;;;5.10;2.65;;;;;;;16.82;45.23;98702.41;5092017;28;20020;-46
2022/11/14 09:33:29;;;;;;;6.13;2.80;;;;;;;16.63;45.64;98709.75;5092070;28;20019;-46
2022/11/14 09:36:06;;;;;;;5.70;2.97;;;;;;;16.49;46.77;98714.53;5091936;28;20108;-46
2022/11/14 09:38:33;;;;;;;3.67;2.72;;;;;;;16.52;46.48;98710.59;5092051;28;20081;-46
2022/11/14 09:41:02;;;;;;;6.25;2.88;;;;;;;16.52;46.46;98713.25;5091916;28;20035;-46
2022/11/14 09:44:07;;;;;;;3.60;2.50;;;;;;;16.57;45.99;98692.94;5090629;28;20032;-46
2022/11/14 09:46:32;;;;;;;7.43;2.90;;;;;;;16.53;46.17;98702.41;5059985;28;20032;-46
2022/11/14 09:48:58;;;;;;;6.88;3.00;;;;;;;16.58;45.75;98707.81;5091853;28;20477;-46
2022/11/14 09:51:49;;;;;;;7.72;2.85;;;;;;;16.65;45.60;98723.56;5091752;28;20016;-45
2022/11/14 09:54:21;;;;;;;6.13;2.42;;;;;;;16.57;45.62;98716.00;5091929;28;20082;-47
2022/11/14 09:56:47;;;;;;;13.95;2.95;;;;;;;16.62;46.21;98712.63;5091813;28;20024;-46
2022/11/14 09:59:14;;;;;;;11.48;2.97;;;;;;;16.62;45.98;98715.28;5091827;28;20021;-46
2022/11/14 10:01:55;;;;;;;13.55;3.05;;;;;;;16.60;45.27;98704.94;5073624;28;20036;-46
2022/11/14 10:05:02;;;;;;;38.90;4.88;;;;;;;16.49;46.38;98719.03;5091812;28;20032;-46
2022/11/14 10:08:06;;;;;;;10.30;2.65;;;;;;;16.46;46.16;98707.06;5092033;28;20028;-46
2022/11/14 10:10:56;;;;;;;14.48;3.05;;;;;;;16.48;46.52;98696.22;5091614;28;20055;-46
2022/11/14 10:13:38;;;;;;;10.50;3.38;;;;;;;16.65;46.54;98720.91;5091609;28;20425;-46
2022/11/14 10:16:19;;;;;;;11.80;2.70;;;;;;;17.07;45.53;98704.66;5091588;28;20032;-46
2022/11/14 10:19:16;;;;;;;31.23;3.92;;;;;;;17.43;44.34;98707.03;5091652;28;20023;-46
2022/11/14 10:22:01;;;;;;;122.45;9.18;;;;;;;17.35;44.12;98689.69;5091501;28;20081;-46
2022/11/14 10:24:45;;;;;;;106.82;8.30;;;;;;;17.26;43.31;98691.13;5090002;28;20052;-46
2022/11/14 10:27:23;;;;;;;112.22;9.27;;;;;;;17.09;44.14;98699.91;5091392;28;20056;-46
2022/11/14 10:30:07;;;;;;;116.93;8.38;;;;;;;17.09;44.04;98697.25;5091527;28;20197;-46
2022/11/14 10:32:45;;;;;;;47.67;6.05;;;;;;;17.03;44.45;98703.53;5093307;28;20042;-46
2022/11/14 10:35:17;;;;;;;22.05;3.60;;;;;;;17.05;44.69;98698.00;5095423;28;20028;-46
2022/11/14 10:38:12;;;;;;;29.23;3.45;;;;;;;17.18;44.26;98681.72;5093954;28;20085;-45
2022/11/14 10:40:39;;;;;;;4.68;2.15;;;;;;;17.24;44.13;98717.88;5084224;28;20028;-46
2022/11/14 10:43:33;;;;;;;13.05;2.53;;;;;;;17.30;44.38;98687.75;5095162;28;20077;-46
2022/11/14 10:46:17;;;;;;;52.25;5.65;;;;;;;17.46;43.96;98707.31;5093785;28;20020;-46
2022/11/14 10:48:48;;;;;;;68.88;6.20;;;;;;;17.60;43.64;98696.38;5095014;28;20024;-46
2022/11/14 10:51:19;;;;;;;14.23;2.53;;;;;;;17.81;43.24;98698.25;5093680;28;20024;-46
2022/11/14 10:54:09;;;;;;;10.73;2.50;;;;;;;17.94;42.83;98686.47;5094997;28;20497;-46
2022/11/14 10:56:54;;;;;;;10.63;3.05;;;;;;;17.83;43.40;98674.06;5093855;28;20032;-46
2022/11/14 10:59:22;;;;;;;11.45;3.20;;;;;;;17.98;43.44;98676.16;5093561;28;20032;-46
2022/11/14 11:01:52;;;;;;;7.72;2.50;;;;;;;18.10;42.95;98653.69;5094753;28;20074;-46
2022/11/14 11:04:21;;;;;;;11.30;2.40;;;;;;;18.08;42.52;98690.34;5094723;28;20055;-46
2022/11/14 11:06:49;;;;;;;9.98;2.10;;;;;;;18.15;42.16;98682.97;5093326;28;20028;-46
2022/11/14 11:12:08;;;;;;;5.68;2.70;;;;;;;18.18;42.21;98676.38;5094558;28;20034;-44
2022/11/14 11:14:34;;;;;;;6.68;2.47;;;;;;;18.22;41.82;98672.16;5094595;28;20028;-45
2022/11/14 11:17:11;;;;;;;6.70;2.08;;;;;;;18.35;41.78;98657.66;5093167;28;20138;-45
2022/11/14 11:19:39;;;;;;;4.90;2.22;;;;;;;18.36;41.21;98660.06;5094443;28;20082;-45
2022/11/14 11:22:39;;;;;;;2.55;1.70;;;;;;;18.23;41.10;98671.13;5094433;28;20070;-45
2022/11/14 11:25:29;;;;;;;3.35;2.15;;;;;;;18.05;42.30;98687.38;5092714;28;20526;-44
2022/11/14 11:28:06;;;;;;;4.93;2.00;;;;;;;17.92;42.44;98680.59;5093035;28;20031;-45
2022/11/14 11:30:32;;;;;;;5.35;2.22;;;;;;;17.78;43.30;98667.66;5093159;28;20024;-46
2022/11/14 11:33:31;;;;;;;3.80;1.70;;;;;;;17.83;43.23;98637.75;5092912;28;20036;-46
2022/11/14 11:36:06;;;;;;;9.20;2.90;;;;;;;17.79;43.73;98679.09;5077387;28;20035;-46
2022/11/14 11:38:32;;;;;;;;;;;;;;;17.83;43.19;98653.69;5094629;28;20063;-45
2022/11/14 11:41:34;;;;;;;5.07;1.90;;;;;;;17.77;43.43;98671.38;5093977;28;19939;-46
2022/11/14 11:44:04;;;;;;;4.28;1.90;;;;;;;17.75;43.76;98654.91;5093169;28;20548;-46